createdAt,value
2023-01-15T00:02:08.744Z,73.45
2023-01-15T00:04:37.117Z,73.10
2023-01-15T00:07:05.475Z,73.09
2023-01-15T00:09:35.627Z,73.03
2023-01-15T00:12:04.043Z,72.67
2023-01-15T00:14:32.406Z,72.99
2023-01-15T00:17:00.717Z,73.40
2023-01-15T00:19:28.999Z,73.38
2023-01-15T00:21:58.413Z,73.18
2023-01-15T00:24:43.858Z,73.14
2023-01-15T00:27:31.094Z,73.09
2023-01-15T00:29:59.438Z,72.66
2023-01-15T00:32:29.781Z,72.38
2023-01-15T00:34:59.765Z,72.58
2023-01-15T00:37:28.268Z,72.58
2023-01-15T00:39:56.554Z,72.87
2023-01-15T00:42:26.375Z,72.88
2023-01-15T00:44:54.664Z,72.94
2023-01-15T00:47:23.044Z,72.64
2023-01-15T00:49:52.128Z,72.96
2023-01-15T00:52:20.598Z,73.23
2023-01-15T00:54:49.711Z,72.55
2023-01-15T00:57:18.099Z,72.86
2023-01-15T00:59:47.784Z,71.77
2023-01-15T01:02:16.309Z,72.62
2023-01-15T01:04:44.900Z,72.95
2023-01-15T01:07:13.610Z,72.51
2023-01-15T01:09:41.849Z,72.54
2023-01-15T01:12:10.337Z,72.93
2023-01-15T01:14:38.935Z,73.58
2023-01-15T01:17:08.732Z,72.96
2023-01-15T01:19:38.218Z,73.44
2023-01-15T01:22:06.577Z,73.91
2023-01-15T01:24:34.931Z,73.25
2023-01-15T01:27:03.338Z,72.90
2023-01-15T01:29:31.620Z,73.57
2023-01-15T01:31:59.948Z,73.40
2023-01-15T01:34:29.709Z,73.02
2023-01-15T01:36:58.055Z,73.05
2023-01-15T01:39:26.394Z,73.04
2023-01-15T01:41:54.712Z,73.57
2023-01-15T01:45:04.991Z,73.36
2023-01-15T01:47:34.815Z,73.24
2023-01-15T01:50:08.491Z,74.15
2023-01-15T01:52:39.442Z,74.10
2023-01-15T01:55:09.274Z,73.45
2023-01-15T01:57:38.980Z,73.54
2023-01-15T02:00:10.999Z,72.85
2023-01-15T02:02:40.490Z,73.16
2023-01-15T02:05:12.809Z,72.86
2023-01-15T02:07:41.453Z,72.92
2023-01-15T02:10:15.780Z,73.43
2023-01-15T02:12:50.924Z,73.69
2023-01-15T02:15:25.433Z,73.47
2023-01-15T02:17:57.926Z,73.71
2023-01-15T02:20:33.644Z,73.67
2023-01-15T02:23:29.542Z,72.97
2023-01-15T02:26:24.007Z,73.39
2023-01-15T02:28:56.781Z,73.91
2023-01-15T02:31:29.105Z,73.43
2023-01-15T02:34:01.451Z,73.24
2023-01-15T02:36:32.095Z,73.26
2023-01-15T02:39:03.349Z,73.20
2023-01-15T02:41:37.278Z,72.82
2023-01-15T02:44:10.248Z,73.29
2023-01-15T02:46:40.509Z,73.66
2023-01-15T02:49:13.556Z,72.88
2023-01-15T02:51:46.439Z,73.22
2023-01-15T02:54:17.897Z,73.70
2023-01-15T02:56:48.300Z,73.25
2023-01-15T02:59:23.883Z,73.04
2023-01-15T03:01:57.536Z,73.24
2023-01-15T03:04:30.106Z,73.39
2023-01-15T03:07:05.200Z,73.10
2023-01-15T03:09:34.209Z,73.04
2023-01-15T03:12:09.758Z,73.04
2023-01-15T03:14:46.036Z,71.98
2023-01-15T03:17:19.507Z,72.60
2023-01-15T03:19:52.444Z,72.76
2023-01-15T03:22:27.577Z,72.42
2023-01-15T03:24:58.735Z,72.78
2023-01-15T03:27:27.183Z,72.37
2023-01-15T03:30:02.204Z,71.75
2023-01-15T03:32:31.490Z,70.37
2023-01-15T03:35:00.617Z,69.90
2023-01-15T03:37:29.830Z,69.87
2023-01-15T03:39:59.365Z,69.50
2023-01-15T03:42:39.980Z,69.74
2023-01-15T03:45:15.148Z,69.42
2023-01-15T03:47:54.737Z,69.88
2023-01-15T03:50:29.000Z,70.26
2023-01-15T03:53:07.888Z,70.04
2023-01-15T03:55:43.779Z,69.08
2023-01-15T03:58:18.058Z,69.34
2023-01-15T04:00:52.640Z,68.70
2023-01-15T04:03:23.763Z,68.48
2023-01-15T04:05:54.078Z,68.10
2023-01-15T04:08:22.648Z,67.80
2023-01-15T04:10:54.886Z,68.17
2023-01-15T04:13:23.823Z,68.13
2023-01-15T04:15:54.645Z,68.53
2023-01-15T04:18:23.092Z,68.32
2023-01-15T04:20:51.373Z,68.16
2023-01-15T04:23:19.806Z,67.08
2023-01-15T04:25:48.134Z,67.11
2023-01-15T04:28:16.501Z,67.27
2023-01-15T04:30:44.929Z,67.70
2023-01-15T04:33:14.724Z,67.93
2023-01-15T04:35:43.131Z,67.77
2023-01-15T04:38:11.583Z,67.00
2023-01-15T04:40:57.239Z,66.96
2023-01-15T04:43:42.804Z,67.25
2023-01-15T04:46:11.198Z,66.68
2023-01-15T04:48:42.001Z,66.92
2023-01-15T04:51:10.330Z,67.30
2023-01-15T04:53:38.656Z,67.24
2023-01-15T04:56:07.851Z,67.02
2023-01-15T04:58:36.577Z,66.70
2023-01-15T05:01:06.715Z,66.83
2023-01-15T05:03:35.114Z,66.82
2023-01-15T05:06:05.547Z,66.83
2023-01-15T05:08:34.262Z,66.99
2023-01-15T05:11:07.054Z,66.67
2023-01-15T05:13:35.785Z,66.65
2023-01-15T05:16:12.511Z,66.64
2023-01-15T05:18:41.077Z,65.69
2023-01-15T05:21:16.393Z,64.89
2023-01-15T05:23:44.802Z,65.79
2023-01-15T05:26:13.339Z,66.20
2023-01-15T05:28:41.769Z,66.16
2023-01-15T05:31:11.064Z,66.07
2023-01-15T05:33:40.349Z,65.83
2023-01-15T05:36:12.608Z,65.65
2023-01-15T05:38:41.590Z,65.62
2023-01-15T05:41:26.300Z,65.88
2023-01-15T05:43:54.801Z,66.14
2023-01-15T05:46:23.814Z,65.73
2023-01-15T05:48:52.363Z,65.98
2023-01-15T05:51:22.304Z,65.57
2023-01-15T05:53:50.767Z,66.20
2023-01-15T05:56:19.169Z,65.97
2023-01-15T05:58:47.595Z,66.20
2023-01-15T06:01:16.491Z,66.09
2023-01-15T06:03:45.001Z,65.88
2023-01-15T06:06:16.130Z,65.75
2023-01-15T06:08:46.028Z,66.01
2023-01-15T06:11:14.809Z,65.73
2023-01-15T06:13:43.180Z,65.13
2023-01-15T06:16:12.255Z,65.28
2023-01-15T06:18:41.247Z,65.08
2023-01-15T06:21:11.645Z,65.17
2023-01-15T06:23:40.867Z,65.34
2023-01-15T06:26:13.478Z,65.08
2023-01-15T06:28:42.165Z,65.25
2023-01-15T06:31:11.829Z,65.06
2023-01-15T06:33:40.489Z,63.12
2023-01-15T06:36:11.516Z,62.95
2023-01-15T06:38:40.530Z,63.92
2023-01-15T06:41:27.467Z,64.15
2023-01-15T06:44:13.223Z,63.98
2023-01-15T06:47:03.260Z,64.05
2023-01-15T06:49:31.973Z,64.21
2023-01-15T06:52:00.959Z,64.12
2023-01-15T06:54:29.396Z,64.18
2023-01-15T06:56:59.170Z,64.12
2023-01-15T06:59:27.536Z,64.26
2023-01-15T07:01:56.052Z,64.54
2023-01-15T07:04:24.477Z,64.30
2023-01-15T07:06:52.852Z,64.11
2023-01-15T07:09:21.124Z,63.89
2023-01-15T07:11:52.110Z,63.44
2023-01-15T07:14:24.016Z,63.31
2023-01-15T07:16:53.810Z,63.54
2023-01-15T07:19:22.380Z,62.40
2023-01-15T07:21:50.692Z,62.23
2023-01-15T07:24:19.453Z,62.51
2023-01-15T07:26:48.295Z,62.28
2023-01-15T07:29:16.894Z,62.80
2023-01-15T07:31:46.889Z,62.74
2023-01-15T07:34:15.402Z,62.48
2023-01-15T07:36:44.565Z,62.80
2023-01-15T07:39:13.297Z,62.98
2023-01-15T07:41:59.526Z,62.86
2023-01-15T07:44:45.086Z,63.14
2023-01-15T07:47:37.469Z,62.54
2023-01-15T07:50:08.366Z,62.20
2023-01-15T07:52:36.820Z,62.05
2023-01-15T07:55:05.609Z,62.48
2023-01-15T07:57:33.986Z,62.28
2023-01-15T08:00:02.425Z,62.29
2023-01-15T08:02:32.136Z,62.11
2023-01-15T08:05:00.447Z,61.99
2023-01-15T08:07:29.173Z,62.06
2023-01-15T08:09:57.434Z,62.28
2023-01-15T08:12:42.916Z,62.48
2023-01-15T08:15:15.221Z,62.66
2023-01-15T08:17:46.772Z,62.60
2023-01-15T08:20:17.812Z,62.95
2023-01-15T08:22:47.242Z,63.00
2023-01-15T08:25:18.925Z,63.25
2023-01-15T08:27:48.369Z,63.00
2023-01-15T08:30:18.786Z,62.62
2023-01-15T08:32:49.299Z,62.87
2023-01-15T08:35:18.220Z,62.84
2023-01-15T08:37:46.675Z,63.02
2023-01-15T08:40:15.497Z,62.39
2023-01-15T08:42:44.142Z,61.85
2023-01-15T08:45:14.323Z,62.17
2023-01-15T08:47:42.675Z,62.15
2023-01-15T08:50:13.175Z,61.62
2023-01-15T08:52:41.799Z,62.05
2023-01-15T08:55:10.584Z,62.26
2023-01-15T08:57:38.971Z,62.31
2023-01-15T09:00:09.284Z,62.38
2023-01-15T09:02:37.637Z,61.97
2023-01-15T09:05:06.692Z,61.28
2023-01-15T09:07:37.355Z,61.64
2023-01-15T09:10:06.335Z,61.89
2023-01-15T09:12:34.978Z,61.95
2023-01-15T09:15:03.624Z,61.68
2023-01-15T09:17:33.894Z,61.86
2023-01-15T09:20:03.333Z,61.45
2023-01-15T09:22:31.757Z,62.27
2023-01-15T09:25:01.793Z,62.41
2023-01-15T09:27:30.731Z,62.38
2023-01-15T09:29:58.990Z,62.42
2023-01-15T09:32:27.426Z,62.19
2023-01-15T09:34:56.157Z,61.41
2023-01-15T09:37:24.753Z,61.35
2023-01-15T09:39:53.144Z,62.01
2023-01-15T09:42:44.066Z,61.88
2023-01-15T09:45:19.726Z,62.17
2023-01-15T09:48:11.880Z,62.33
2023-01-15T09:50:56.062Z,62.84
2023-01-15T09:53:54.596Z,62.16
2023-01-15T09:56:24.850Z,62.40
2023-01-15T09:58:57.056Z,62.88
2023-01-15T10:01:28.432Z,62.71
2023-01-15T10:04:04.870Z,60.87
2023-01-15T10:06:40.944Z,61.37
2023-01-15T10:09:17.670Z,61.99
2023-01-15T10:12:20.399Z,62.38
2023-01-15T10:14:59.773Z,62.54
2023-01-15T10:17:35.336Z,61.84
2023-01-15T10:20:04.153Z,62.01
2023-01-15T10:22:50.116Z,61.67
2023-01-15T10:25:24.020Z,61.89
2023-01-15T10:27:54.409Z,61.43
2023-01-15T10:30:37.613Z,61.85
2023-01-15T10:33:21.082Z,61.51
2023-01-15T10:35:55.682Z,61.79
2023-01-15T10:38:33.839Z,62.09
2023-01-15T10:41:27.540Z,62.74
2023-01-15T10:44:01.265Z,62.96
2023-01-15T10:46:33.777Z,63.34
2023-01-15T10:49:06.744Z,63.06
2023-01-15T10:51:41.085Z,62.63
2023-01-15T10:54:18.240Z,62.67
2023-01-15T10:56:53.052Z,62.39
2023-01-15T10:59:25.242Z,63.04
2023-01-15T11:01:57.270Z,62.73
2023-01-15T11:04:28.449Z,62.61
2023-01-15T11:06:56.815Z,63.08
2023-01-15T11:09:31.612Z,63.10
2023-01-15T11:12:31.832Z,63.25
2023-01-15T11:15:17.538Z,62.87
2023-01-15T11:18:16.579Z,62.46
2023-01-15T11:20:46.787Z,62.60
2023-01-15T11:23:18.162Z,62.64
2023-01-15T11:25:52.382Z,62.46
2023-01-15T11:28:31.295Z,62.75
2023-01-15T11:30:59.725Z,62.25
2023-01-15T11:33:32.312Z,62.51
2023-01-15T11:36:03.014Z,62.18
2023-01-15T11:38:32.823Z,61.96
2023-01-15T11:41:05.480Z,62.68
2023-01-15T11:43:50.502Z,63.21
2023-01-15T11:46:40.880Z,63.65
2023-01-15T11:49:29.579Z,63.37
2023-01-15T11:51:59.941Z,63.02
2023-01-15T11:54:29.192Z,63.54
2023-01-15T11:56:58.145Z,63.29
2023-01-15T11:59:27.243Z,63.40
2023-01-15T12:02:00.197Z,62.63
2023-01-15T12:04:36.030Z,63.44
2023-01-15T12:07:06.651Z,62.84
2023-01-15T12:09:53.041Z,62.98
2023-01-15T12:12:34.115Z,63.40
2023-01-15T12:15:17.588Z,63.14
2023-01-15T12:18:02.840Z,62.74
2023-01-15T12:20:49.109Z,63.10
2023-01-15T12:23:45.676Z,62.98
2023-01-15T12:26:21.417Z,62.85
2023-01-15T12:28:59.374Z,62.92
2023-01-15T12:31:34.253Z,63.06
2023-01-15T12:34:09.798Z,62.97
2023-01-15T12:36:49.017Z,62.43
2023-01-15T12:39:23.215Z,62.19
2023-01-15T12:42:13.278Z,62.24
2023-01-15T12:45:04.890Z,61.90
2023-01-15T12:47:41.489Z,62.53
2023-01-15T12:50:25.377Z,62.22
2023-01-15T12:53:02.764Z,61.98
2023-01-15T12:55:33.325Z,62.26
2023-01-15T12:58:05.042Z,62.25
2023-01-15T13:00:37.604Z,62.29
2023-01-15T13:03:18.329Z,62.68
2023-01-15T13:05:50.122Z,62.60
2023-01-15T13:08:27.010Z,62.36
2023-01-15T13:10:55.461Z,61.62
2023-01-15T13:13:25.800Z,61.96
2023-01-15T13:16:09.063Z,61.19
2023-01-15T13:18:48.749Z,62.55
2023-01-15T13:21:20.503Z,62.41
2023-01-15T13:24:06.933Z,62.54
2023-01-15T13:26:55.783Z,62.94
2023-01-15T13:29:35.832Z,62.25
2023-01-15T13:32:09.987Z,62.01
2023-01-15T13:34:46.130Z,61.74
2023-01-15T13:37:21.812Z,61.69
2023-01-15T13:39:55.060Z,61.37
2023-01-15T13:42:35.522Z,60.13
2023-01-15T13:45:09.393Z,60.72
2023-01-15T13:47:43.518Z,61.12
2023-01-15T13:50:18.394Z,61.13
2023-01-15T13:52:47.826Z,61.23
2023-01-15T13:55:27.841Z,60.90
2023-01-15T13:57:56.268Z,61.28
2023-01-15T14:00:30.778Z,60.78
2023-01-15T14:03:00.648Z,60.88
2023-01-15T14:05:33.241Z,60.58
2023-01-15T14:08:02.627Z,59.81
2023-01-15T14:10:40.619Z,59.31
2023-01-15T14:13:46.739Z,59.92
2023-01-15T14:16:24.742Z,60.09
2023-01-15T14:19:14.406Z,60.08
2023-01-15T14:21:53.156Z,59.25
2023-01-15T14:24:59.605Z,59.41
2023-01-15T14:27:51.026Z,59.05
2023-01-15T14:30:32.581Z,59.46
2023-01-15T14:33:11.856Z,59.68
2023-01-15T14:35:47.099Z,59.96
2023-01-15T14:38:19.335Z,59.77
2023-01-15T14:40:59.704Z,60.13
2023-01-15T14:43:33.710Z,59.82
2023-01-15T14:46:16.757Z,59.31
2023-01-15T14:48:45.150Z,59.70
2023-01-15T14:51:16.525Z,60.16
2023-01-15T14:53:46.799Z,60.05
2023-01-15T14:56:21.453Z,60.29
2023-01-15T14:58:59.804Z,59.97
2023-01-15T15:01:39.278Z,59.76
2023-01-15T15:04:21.470Z,60.19
2023-01-15T15:06:52.913Z,59.70
2023-01-15T15:09:30.842Z,59.68
2023-01-15T15:12:21.236Z,59.47
2023-01-15T15:15:00.767Z,59.60
2023-01-15T15:17:38.573Z,59.58
2023-01-15T15:20:23.527Z,59.69
2023-01-15T15:22:56.606Z,58.79
2023-01-15T15:25:28.846Z,59.63
2023-01-15T15:28:05.072Z,59.90
2023-01-15T15:30:37.520Z,59.81
2023-01-15T15:33:08.926Z,59.97
2023-01-15T15:35:40.704Z,59.93
2023-01-15T15:38:09.021Z,60.18
2023-01-15T15:40:38.729Z,60.66
2023-01-15T15:43:33.384Z,60.71
2023-01-15T15:46:35.022Z,59.92
2023-01-15T15:49:05.893Z,60.00
2023-01-15T15:51:36.406Z,59.80
2023-01-15T15:54:06.999Z,59.43
2023-01-15T15:56:36.447Z,59.36
2023-01-15T15:59:06.463Z,59.56
2023-01-15T16:01:40.601Z,60.01
2023-01-15T16:04:16.715Z,60.52
2023-01-15T16:06:45.191Z,61.03
2023-01-15T16:09:13.596Z,60.43
2023-01-15T16:11:42.946Z,60.54
2023-01-15T16:14:16.052Z,60.52
2023-01-15T16:16:48.295Z,60.57
2023-01-15T16:19:21.775Z,61.00
2023-01-15T16:21:51.506Z,59.84
2023-01-15T16:24:26.234Z,60.24
2023-01-15T16:27:01.061Z,60.69
2023-01-15T16:29:32.665Z,60.64
2023-01-15T16:32:02.962Z,60.44
2023-01-15T16:34:34.087Z,60.27
2023-01-15T16:37:04.004Z,60.24
2023-01-15T16:39:39.327Z,60.24
2023-01-15T16:42:26.943Z,60.23
2023-01-15T16:44:58.392Z,60.39
2023-01-15T16:47:32.376Z,60.45
2023-01-15T16:50:26.864Z,61.12
2023-01-15T16:52:56.309Z,61.44
2023-01-15T16:55:42.787Z,61.58
2023-01-15T16:58:19.346Z,61.22
2023-01-15T17:00:50.092Z,61.18
2023-01-15T17:03:23.078Z,61.36
2023-01-15T17:05:55.467Z,61.08
2023-01-15T17:08:30.471Z,61.09
2023-01-15T17:11:02.493Z,60.97
2023-01-15T17:13:35.671Z,60.71
2023-01-15T17:16:09.059Z,61.21
2023-01-15T17:18:38.895Z,61.41
2023-01-15T17:21:08.100Z,61.68
2023-01-15T17:23:39.007Z,61.41
2023-01-15T17:26:09.048Z,61.16
2023-01-15T17:28:37.442Z,61.52
2023-01-15T17:31:06.070Z,62.16
2023-01-15T17:33:34.468Z,61.70
2023-01-15T17:36:04.292Z,61.17
2023-01-15T17:38:32.841Z,61.34
2023-01-15T17:41:03.670Z,61.88
2023-01-15T17:43:31.980Z,61.96
2023-01-15T17:46:01.393Z,62.29
2023-01-15T17:48:29.855Z,62.34
2023-01-15T17:51:01.327Z,62.44
2023-01-15T17:53:32.613Z,62.83
2023-01-15T17:56:17.995Z,62.60
2023-01-15T17:59:03.572Z,62.18
2023-01-15T18:01:54.712Z,61.85
2023-01-15T18:04:44.750Z,62.21
2023-01-15T18:07:14.459Z,62.43
2023-01-15T18:09:45.374Z,61.50
2023-01-15T18:12:13.856Z,61.83
2023-01-15T18:14:42.424Z,62.29
2023-01-15T18:17:11.746Z,61.80
2023-01-15T18:19:40.082Z,62.11
2023-01-15T18:22:08.894Z,62.24
2023-01-15T18:24:37.474Z,62.63
2023-01-15T18:27:07.511Z,62.20
2023-01-15T18:29:40.096Z,62.22
2023-01-15T18:32:09.363Z,61.94
2023-01-15T18:34:37.900Z,61.99
2023-01-15T18:37:06.894Z,61.97
2023-01-15T18:39:37.354Z,62.27
2023-01-15T18:42:24.526Z,62.18
2023-01-15T18:45:10.114Z,62.39
2023-01-15T18:47:41.176Z,62.47
2023-01-15T18:50:11.310Z,62.81
2023-01-15T18:52:51.973Z,62.75
2023-01-15T18:55:22.652Z,62.70
2023-01-15T18:57:52.828Z,63.00
2023-01-15T19:00:23.187Z,62.16
2023-01-15T19:02:52.166Z,62.15
2023-01-15T19:05:20.828Z,61.79
2023-01-15T19:07:49.627Z,62.49
2023-01-15T19:10:19.106Z,62.49
2023-01-15T19:12:48.213Z,62.20
2023-01-15T19:15:38.084Z,62.86
2023-01-15T19:18:23.931Z,62.64
2023-01-15T19:20:52.825Z,63.06
2023-01-15T19:23:22.124Z,63.35
2023-01-15T19:25:50.787Z,62.75
2023-01-15T19:28:21.604Z,62.46
2023-01-15T19:31:05.597Z,62.76
2023-01-15T19:33:34.280Z,63.02
2023-01-15T19:36:02.675Z,62.41
2023-01-15T19:38:31.034Z,62.46
2023-01-15T19:41:19.397Z,62.68
2023-01-15T19:44:05.239Z,62.95
2023-01-15T19:46:58.962Z,62.88
2023-01-15T19:49:45.261Z,62.95
2023-01-15T19:52:30.705Z,63.11
2023-01-15T19:55:00.155Z,63.37
2023-01-15T19:57:28.537Z,62.94
2023-01-15T19:59:58.008Z,62.94
2023-01-15T20:02:29.802Z,63.32
2023-01-15T20:04:58.523Z,62.74
2023-01-15T20:07:27.779Z,62.58
2023-01-15T20:09:57.350Z,62.90
2023-01-15T20:12:43.765Z,63.19
2023-01-15T20:15:12.503Z,63.47
2023-01-15T20:17:42.557Z,63.43
2023-01-15T20:20:12.443Z,63.14
2023-01-15T20:22:41.258Z,63.68
2023-01-15T20:25:12.901Z,64.21
2023-01-15T20:27:42.072Z,64.19
2023-01-15T20:30:15.415Z,64.26
2023-01-15T20:32:47.835Z,64.34
2023-01-15T20:35:19.640Z,64.70
2023-01-15T20:37:49.938Z,64.07
2023-01-15T20:40:20.870Z,64.33
2023-01-15T20:43:07.511Z,64.16
2023-01-15T20:45:36.461Z,64.08
2023-01-15T20:48:25.264Z,64.47
2023-01-15T20:51:03.261Z,65.03
2023-01-15T20:53:34.790Z,64.97
2023-01-15T20:56:04.425Z,65.59
2023-01-15T20:58:33.956Z,65.23
2023-01-15T21:01:08.857Z,65.30
2023-01-15T21:03:39.916Z,65.48
2023-01-15T21:06:09.947Z,65.59
2023-01-15T21:08:40.885Z,65.40
2023-01-15T21:11:13.026Z,65.11
2023-01-15T21:13:45.154Z,64.74
2023-01-15T21:16:15.841Z,64.29
2023-01-15T21:18:46.562Z,64.94
2023-01-15T21:21:17.775Z,64.57
2023-01-15T21:23:46.671Z,64.88
2023-01-15T21:26:15.643Z,64.94
2023-01-15T21:28:45.665Z,65.18
2023-01-15T21:31:16.394Z,64.49
2023-01-15T21:33:47.874Z,64.77
2023-01-15T21:36:17.888Z,64.97
2023-01-15T21:38:51.531Z,64.88
2023-01-15T21:41:20.676Z,64.82
2023-01-15T21:44:07.226Z,65.55
2023-01-15T21:46:36.941Z,64.50
2023-01-15T21:49:07.801Z,64.58
2023-01-15T21:51:36.907Z,64.10
2023-01-15T21:54:05.763Z,63.37
2023-01-15T21:56:34.121Z,64.49
2023-01-15T21:59:02.427Z,64.17
2023-01-15T22:01:30.962Z,64.34
2023-01-15T22:03:59.382Z,64.36
2023-01-15T22:06:29.228Z,64.90
2023-01-15T22:08:57.710Z,65.08
2023-01-15T22:11:43.676Z,65.19
2023-01-15T22:14:14.108Z,65.38
2023-01-15T22:16:43.217Z,65.34
2023-01-15T22:19:12.824Z,64.82
2023-01-15T22:21:42.597Z,64.12
2023-01-15T22:24:10.897Z,63.78
2023-01-15T22:26:43.175Z,63.54
2023-01-15T22:29:11.967Z,63.73
2023-01-15T22:31:41.737Z,64.18
2023-01-15T22:34:10.251Z,63.38
2023-01-15T22:36:38.739Z,64.00
2023-01-15T22:39:08.471Z,64.71
2023-01-15T22:41:54.371Z,64.79
2023-01-15T22:44:22.755Z,64.81
2023-01-15T22:46:54.054Z,65.24
2023-01-15T22:49:23.131Z,65.20
2023-01-15T22:51:52.563Z,65.42
2023-01-15T22:54:22.300Z,65.58
2023-01-15T22:56:50.789Z,65.83
2023-01-15T22:59:19.579Z,65.79
2023-01-15T23:01:48.010Z,65.70
2023-01-15T23:04:18.148Z,65.87
2023-01-15T23:06:46.568Z,66.01
2023-01-15T23:09:15.306Z,65.78
2023-01-15T23:11:46.270Z,65.88
2023-01-15T23:14:16.442Z,65.76
2023-01-15T23:16:45.229Z,65.79
2023-01-15T23:19:14.387Z,66.08
2023-01-15T23:21:43.438Z,65.94
2023-01-15T23:24:12.701Z,65.88
2023-01-15T23:26:41.229Z,65.90
2023-01-15T23:29:10.949Z,65.79
2023-01-15T23:31:39.315Z,65.72
2023-01-15T23:34:07.680Z,65.90
2023-01-15T23:36:36.151Z,65.44
2023-01-15T23:39:04.490Z,65.43
2023-01-15T23:41:49.965Z,66.28
2023-01-15T23:44:39.816Z,66.45
2023-01-15T23:47:09.374Z,66.24
2023-01-15T23:49:38.034Z,66.30
2023-01-15T23:52:07.777Z,66.33
2023-01-15T23:54:36.148Z,65.93
2023-01-15T23:57:04.909Z,65.84
2023-01-15T23:59:34.698Z,65.73
